Time;durP1;ratioP1;P1;durP2;ratioP2;P2;SDS_P1;SDS_P2;PMS_P1;PMS_P2;Temp;Humidity;BMP_temperature;BMP_pressure;BME280_temperature;BME280_humidity;BME280_pressure;Samples;Min_cycle;Max_cycle;Signal;HPM_P1;HPM_P2
2022/10/24 00:00:17;;;;;;;7.37;6.07;;;14.20;99.90;;;;;;5099228;28;20453;-66
2022/10/24 00:02:45;;;;;;;11.57;6.80;;;14.20;99.90;;;;;;5100289;28;20488;-67
2022/10/24 00:05:13;;;;;;;10.13;7.10;;;14.30;99.90;;;;;;5100578;28;20627;-66
2022/10/24 00:07:41;;;;;;;8.53;7.33;;;14.30;99.90;;;;;;5100644;28;21070;-67
2022/10/24 00:10:09;;;;;;;8.30;6.80;;;14.30;99.90;;;;;;5100630;28;20532;-67
2022/10/24 00:12:36;;;;;;;9.17;6.70;;;14.40;99.90;;;;;;5100494;28;20453;-67
2022/10/24 00:15:03;;;;;;;8.50;7.07;;;14.50;99.90;;;;;;5100161;28;20453;-67
2022/10/24 00:17:30;;;;;;;11.93;6.60;;;14.40;99.90;;;;;;5099986;28;20456;-67
2022/10/24 00:19:59;;;;;;;11.17;6.97;;;14.40;99.90;;;;;;5099624;28;20931;-67
2022/10/24 00:22:27;;;;;;;7.50;6.33;;;14.40;99.90;;;;;;5100349;28;20450;-67
2022/10/24 00:24:54;;;;;;;6.80;6.07;;;14.40;99.90;;;;;;5100280;28;20464;-66
2022/10/24 00:27:21;;;;;;;8.10;6.60;;;14.30;99.90;;;;;;5099518;28;20567;-68
2022/10/24 00:29:47;;;;;;;9.57;7.00;;;14.20;99.90;;;;;;5099234;28;20449;-67
2022/10/24 00:32:14;;;;;;;8.40;7.13;;;14.30;99.90;;;;;;5098797;28;20459;-67
2022/10/24 00:34:42;;;;;;;10.30;7.30;;;14.30;99.90;;;;;;5099375;28;20933;-67
2022/10/24 00:37:10;;;;;;;10.30;7.30;;;14.30;99.90;;;;;;5099186;28;20476;-68
2022/10/24 00:39:36;;;;;;;13.40;8.20;;;14.30;99.90;;;;;;5098588;28;20548;-66
2022/10/24 00:42:03;;;;;;;10.30;7.80;;;14.30;99.90;;;;;;5098382;28;20464;-68
2022/10/24 00:44:33;;;;;;;10.07;7.80;;;14.20;99.90;;;;;;5098590;28;20463;-66
2022/10/24 00:47:03;;;;;;;9.07;7.67;;;14.30;99.90;;;;;;5099219;28;20480;-67
2022/10/24 00:49:35;;;;;;;10.03;8.87;;;14.30;99.90;;;;;;5100651;28;20464;-67
2022/10/24 00:52:05;;;;;;;9.87;7.87;;;14.20;99.90;;;;;;5100039;28;20438;-67
2022/10/24 00:54:34;;;;;;;9.77;8.73;;;14.20;99.90;;;;;;5100819;28;20453;-67
2022/10/24 00:57:04;;;;;;;10.23;8.70;;;14.20;99.90;;;;;;5100812;28;20450;-67
2022/10/24 00:59:33;;;;;;;11.80;8.47;;;14.20;99.90;;;;;;5101822;28;20501;-67
2022/10/24 01:02:00;;;;;;;12.63;8.70;;;14.20;99.90;;;;;;5100912;28;20463;-67
2022/10/24 01:04:27;;;;;;;11.80;8.97;;;14.20;99.90;;;;;;5100244;28;20463;-67
2022/10/24 01:07:07;;;;;;;10.43;9.10;;;14.10;99.90;;;;;;5099776;28;20481;-67
2022/10/24 01:09:53;;;;;;;14.10;8.30;;;14.10;99.90;;;;;;5098088;28;20441;-67
2022/10/24 01:12:31;;;;;;;9.73;7.80;;;14.10;99.90;;;;;;5099024;28;20455;-67
2022/10/24 01:15:06;;;;;;;8.87;7.80;;;14.00;99.90;;;;;;5100255;28;20505;-67
2022/10/24 01:17:41;;;;;;;12.23;8.37;;;14.00;99.90;;;;;;5100062;28;20441;-67
2022/10/24 01:20:29;;;;;;;10.07;7.73;;;14.00;99.90;;;;;;5100584;28;20442;-67
2022/10/24 01:23:07;;;;;;;11.03;8.63;;;14.00;99.90;;;;;;5099686;28;20442;-67
2022/10/24 01:25:45;;;;;;;8.80;7.37;;;14.00;99.90;;;;;;5098907;28;20441;-69
2022/10/24 01:28:15;;;;;;;9.73;7.27;;;14.00;99.90;;;;;;5099092;28;20817;-67
2022/10/24 01:30:46;;;;;;;10.17;8.30;;;14.00;99.90;;;;;;5099856;28;20463;-66
2022/10/24 01:33:20;;;;;;;10.70;8.10;;;14.00;99.90;;;;;;5100269;28;20509;-67
2022/10/24 01:35:52;;;;;;;9.70;7.80;;;14.00;99.90;;;;;;5101590;28;20448;-67
2022/10/24 01:38:24;;;;;;;12.70;9.23;;;14.10;99.90;;;;;;5100940;28;20438;-68
2022/10/24 01:40:56;;;;;;;9.70;8.43;;;14.10;99.90;;;;;;5099548;28;20437;-67
2022/10/24 01:43:27;;;;;;;11.30;9.10;;;14.10;99.90;;;;;;5100120;28;20442;-67
2022/10/24 01:46:01;;;;;;;12.63;8.90;;;14.10;99.90;;;;;;5101201;28;20437;-68
2022/10/24 01:48:30;;;;;;;11.70;9.23;;;14.10;99.90;;;;;;5099636;28;20560;-67
2022/10/24 01:51:00;;;;;;;8.83;7.90;;;14.10;99.90;;;;;;5099557;28;20468;-67
2022/10/24 01:53:30;;;;;;;9.40;8.40;;;14.10;99.90;;;;;;5101334;28;20973;-67
2022/10/24 01:55:57;;;;;;;12.77;8.30;;;14.10;99.90;;;;;;5102121;28;20549;-68
2022/10/24 01:58:24;;;;;;;11.03;7.90;;;14.10;99.90;;;;;;5100121;28;20481;-67
2022/10/24 02:00:54;;;;;;;11.83;8.73;;;14.10;99.90;;;;;;5099111;28;20459;-66
2022/10/24 02:03:30;;;;;;;14.37;8.83;;;14.10;99.90;;;;;;5101334;28;20835;-67
2022/10/24 02:06:03;;;;;;;12.53;8.60;;;14.10;99.90;;;;;;5101880;28;20517;-67
2022/10/24 02:08:34;;;;;;;9.90;8.90;;;14.10;99.90;;;;;;5100627;28;20558;-67
2022/10/24 02:11:04;;;;;;;12.43;8.27;;;14.10;99.90;;;;;;5100810;28;20835;-67
2022/10/24 02:13:38;;;;;;;10.07;7.57;;;14.10;99.90;;;;;;5101384;28;20457;-67
2022/10/24 02:16:06;;;;;;;9.27;7.33;;;14.10;99.90;;;;;;5099936;28;20473;-67
2022/10/24 02:18:35;;;;;;;11.47;7.80;;;14.10;99.90;;;;;;5101436;28;20968;-69
2022/10/24 02:21:10;;;;;;;10.40;7.23;;;14.10;99.90;;;;;;5100907;28;20541;-68
2022/10/24 02:23:43;;;;;;;10.17;7.87;;;14.00;99.90;;;;;;5101088;28;20754;-67
2022/10/24 02:26:15;;;;;;;8.70;7.60;;;14.10;99.90;;;;;;5100975;28;20445;-67
2022/10/24 02:28:45;;;;;;;9.43;7.80;;;14.10;99.90;;;;;;5101795;28;20535;-67
2022/10/24 02:31:17;;;;;;;9.60;7.00;;;14.00;99.90;;;;;;5100745;28;20532;-67
2022/10/24 02:33:48;;;;;;;7.50;6.70;;;14.10;99.90;;;;;;5100103;28;20532;-67
2022/10/24 02:36:18;;;;;;;10.53;7.13;;;14.10;99.90;;;;;;5100479;28;20437;-69
2022/10/24 02:38:48;;;;;;;11.13;6.90;;;14.00;99.90;;;;;;5100103;28;20448;-67
2022/10/24 02:41:20;;;;;;;9.60;6.63;;;14.00;99.90;;;;;;5099980;28;20759;-67
2022/10/24 02:43:49;;;;;;;7.63;6.93;;;14.00;99.90;;;;;;5098421;28;20528;-68
2022/10/24 02:46:18;;;;;;;9.43;7.17;;;14.00;99.90;;;;;;5098663;28;20454;-68
2022/10/24 02:48:51;;;;;;;9.87;7.23;;;14.00;99.90;;;;;;5098205;28;20944;-68
2022/10/24 02:51:21;;;;;;;8.53;7.43;;;14.00;99.90;;;;;;5097612;28;20437;-68
2022/10/24 02:53:49;;;;;;;9.20;7.20;;;13.90;99.90;;;;;;5097349;28;20459;-67
2022/10/24 02:56:16;;;;;;;9.00;6.97;;;13.90;99.90;;;;;;5097355;28;20544;-67
2022/10/24 02:58:43;;;;;;;9.20;7.90;;;13.90;99.90;;;;;;5097192;28;20766;-68
2022/10/24 03:01:10;;;;;;;11.80;7.47;;;13.90;99.90;;;;;;5098149;28;20457;-68
2022/10/24 03:03:37;;;;;;;12.20;7.50;;;13.90;99.90;;;;;;5097508;28;20453;-68
2022/10/24 03:06:06;;;;;;;9.57;7.07;;;13.80;99.90;;;;;;5097616;28;20458;-68
2022/10/24 03:08:33;;;;;;;9.00;7.00;;;13.90;99.90;;;;;;5097669;28;20473;-67
2022/10/24 03:11:00;;;;;;;8.00;7.13;;;13.90;99.90;;;;;;5099776;28;20551;-68
2022/10/24 03:13:26;;;;;;;10.20;7.50;;;13.80;99.90;;;;;;5101276;28;20474;-68
2022/10/24 03:15:53;;;;;;;11.10;6.77;;;13.80;99.90;;;;;;5100776;28;20544;-68
2022/10/24 03:18:20;;;;;;;9.13;6.63;;;13.90;99.90;;;;;;5100582;28;20450;-67
2022/10/24 03:20:47;;;;;;;11.47;8.43;;;13.80;99.90;;;;;;5098619;28;20449;-68
2022/10/24 03:23:18;;;;;;;10.23;6.70;;;13.80;99.90;;;;;;5096628;28;20861;-68
2022/10/24 03:25:45;;;;;;;8.10;6.07;;;13.80;99.90;;;;;;5096418;28;20469;-68
2022/10/24 03:28:11;;;;;;;8.80;6.13;;;13.80;99.90;;;;;;5099940;28;20485;-68
2022/10/24 03:30:38;;;;;;;7.83;6.40;;;13.80;99.90;;;;;;5103849;28;20465;-68
2022/10/24 03:33:05;;;;;;;8.17;6.00;;;13.80;99.90;;;;;;5103874;28;20774;-68
2022/10/24 03:35:32;;;;;;;7.07;5.67;;;13.80;99.90;;;;;;5102846;28;20952;-68
2022/10/24 03:37:59;;;;;;;8.50;5.70;;;13.80;99.90;;;;;;5103250;28;20449;-68
2022/10/24 03:40:27;;;;;;;11.13;6.07;;;13.80;99.90;;;;;;5102877;28;20453;-68
2022/10/24 03:42:54;;;;;;;6.67;6.00;;;13.80;99.90;;;;;;5103432;28;20479;-68
2022/10/24 03:45:20;;;;;;;11.80;5.90;;;13.80;99.90;;;;;;5103277;28;20552;-68
2022/10/24 03:47:47;;;;;;;8.30;6.27;;;13.80;99.90;;;;;;5102282;28;20487;-68
2022/10/24 03:50:14;;;;;;;9.10;6.67;;;13.80;99.90;;;;;;5102295;28;20560;-68
2022/10/24 03:52:41;;;;;;;9.27;6.13;;;13.80;99.90;;;;;;5101674;28;20456;-67
2022/10/24 03:55:08;;;;;;;7.40;5.93;;;13.80;99.90;;;;;;5102354;28;20463;-68
2022/10/24 03:57:37;;;;;;;8.10;5.87;;;13.80;99.90;;;;;;5101692;28;20475;-67
2022/10/24 04:00:05;;;;;;;6.40;5.17;;;13.80;99.90;;;;;;5101351;28;20472;-67
2022/10/24 04:02:32;;;;;;;10.10;5.80;;;13.80;99.90;;;;;;5101906;28;20548;-67
2022/10/24 04:04:58;;;;;;;8.13;5.83;;;13.80;99.90;;;;;;5100928;28;20540;-67
2022/10/24 04:07:25;;;;;;;8.93;5.77;;;13.70;99.90;;;;;;5100681;28;20466;-67
2022/10/24 04:09:52;;;;;;;8.97;5.93;;;13.70;99.90;;;;;;5101603;28;20481;-67
2022/10/24 04:12:19;;;;;;;8.50;5.80;;;13.70;99.90;;;;;;5101170;28;20970;-68
2022/10/24 04:14:47;;;;;;;8.53;5.60;;;13.70;99.90;;;;;;5101572;28;20483;-67
2022/10/24 04:17:14;;;;;;;8.60;5.70;;;13.70;99.90;;;;;;5100774;28;20467;-67
2022/10/24 04:19:41;;;;;;;7.40;6.03;;;13.70;99.90;;;;;;5101561;28;20544;-68
2022/10/24 04:22:08;;;;;;;6.80;6.10;;;13.70;99.90;;;;;;5101282;28;20542;-68
2022/10/24 04:24:36;;;;;;;8.90;5.13;;;13.70;99.90;;;;;;5100816;28;20463;-68
2022/10/24 04:27:03;;;;;;;5.53;5.00;;;13.70;99.90;;;;;;5100845;28;20477;-67
2022/10/24 04:29:30;;;;;;;6.60;5.70;;;13.70;99.90;;;;;;5099375;28;20481;-67
2022/10/24 04:31:58;;;;;;;5.60;5.00;;;13.70;99.90;;;;;;5100359;28;20453;-67
2022/10/24 04:34:25;;;;;;;5.67;5.07;;;13.70;99.90;;;;;;5098949;28;20741;-68
2022/10/24 04:36:52;;;;;;;7.40;5.53;;;13.70;99.90;;;;;;5098757;28;20453;-67
2022/10/24 04:39:19;;;;;;;6.67;5.70;;;13.70;99.90;;;;;;5097540;28;20547;-68
2022/10/24 04:41:46;;;;;;;8.37;5.47;;;13.70;99.90;;;;;;5098758;28;20460;-67
2022/10/24 04:44:13;;;;;;;12.67;5.73;;;13.70;99.90;;;;;;5098003;28;20465;-67
2022/10/24 04:46:40;;;;;;;6.87;5.40;;;13.70;99.90;;;;;;5098938;28;20525;-68
2022/10/24 04:49:08;;;;;;;5.83;4.70;;;13.70;99.90;;;;;;5098711;28;20472;-68
2022/10/24 04:51:35;;;;;;;7.40;5.30;;;13.70;99.90;;;;;;5098122;28;20801;-69
2022/10/24 04:54:02;;;;;;;5.10;4.60;;;13.70;99.90;;;;;;5098351;28;20453;-68
2022/10/24 04:56:29;;;;;;;6.13;4.60;;;13.70;99.90;;;;;;5098051;28;20458;-67
2022/10/24 04:58:56;;;;;;;6.57;4.73;;;13.70;99.90;;;;;;5097963;28;20449;-67
2022/10/24 05:01:22;;;;;;;7.90;4.90;;;13.70;99.90;;;;;;5097805;28;20452;-67
2022/10/24 05:03:49;;;;;;;20.10;5.10;;;13.70;99.90;;;;;;5097196;28;20540;-67
2022/10/24 05:06:17;;;;;;;7.10;5.13;;;13.70;99.90;;;;;;5097339;28;20453;-68
2022/10/24 05:08:44;;;;;;;6.87;4.90;;;13.80;99.90;;;;;;5096974;28;20569;-68
2022/10/24 05:11:11;;;;;;;13.60;5.40;;;13.80;99.90;;;;;;5097289;28;20734;-68
2022/10/24 05:13:38;;;;;;;6.33;5.73;;;13.80;99.90;;;;;;5097683;28;20488;-69
2022/10/24 05:16:06;;;;;;;7.03;4.70;;;13.80;99.90;;;;;;5097070;28;20475;-68
2022/10/24 05:18:33;;;;;;;6.27;5.07;;;13.80;99.90;;;;;;5097011;28;20796;-69
2022/10/24 05:21:00;;;;;;;5.40;4.63;;;13.80;99.90;;;;;;5096857;28;20785;-68
2022/10/24 05:23:28;;;;;;;9.33;5.50;;;13.80;99.90;;;;;;5097187;28;20453;-68
2022/10/24 05:25:55;;;;;;;7.13;4.70;;;13.80;99.90;;;;;;5096774;28;20453;-67
2022/10/24 05:28:22;;;;;;;13.00;5.03;;;13.80;99.90;;;;;;5096553;28;20484;-68
2022/10/24 05:30:49;;;;;;;6.10;4.50;;;13.80;99.90;;;;;;5098077;28;20544;-67
2022/10/24 05:33:16;;;;;;;8.43;4.90;;;13.90;99.90;;;;;;5097595;28;20489;-67
2022/10/24 05:35:43;;;;;;;7.03;4.63;;;13.80;99.90;;;;;;5097700;28;20453;-68
2022/10/24 05:38:09;;;;;;;5.63;4.33;;;13.80;99.90;;;;;;5097554;28;20536;-68
2022/10/24 05:40:38;;;;;;;7.07;4.50;;;13.80;99.90;;;;;;5097667;28;20463;-68
2022/10/24 05:43:04;;;;;;;5.13;4.60;;;13.80;99.90;;;;;;5096182;28;20457;-68
2022/10/24 05:45:31;;;;;;;6.83;4.80;;;13.80;99.90;;;;;;5096445;28;20524;-67
2022/10/24 05:47:58;;;;;;;5.43;4.90;;;13.80;99.90;;;;;;5096418;28;20449;-68
2022/10/24 05:50:25;;;;;;;9.27;5.43;;;13.80;99.90;;;;;;5096726;28;20483;-68
2022/10/24 05:52:52;;;;;;;6.50;4.67;;;13.90;99.90;;;;;;5097900;28;20457;-68
2022/10/24 05:55:19;;;;;;;7.20;5.37;;;13.90;99.90;;;;;;5097110;28;20560;-67
2022/10/24 05:57:47;;;;;;;7.37;5.00;;;13.80;99.90;;;;;;5096853;28;20464;-68
2022/10/24 06:00:16;;;;;;;6.53;5.43;;;13.90;99.90;;;;;;5097000;28;20924;-68
2022/10/24 06:02:44;;;;;;;6.47;4.73;;;13.90;99.90;;;;;;5096871;28;20540;-68
2022/10/24 06:05:11;;;;;;;15.03;5.80;;;13.90;99.90;;;;;;5096519;28;20785;-67
2022/10/24 06:07:40;;;;;;;7.80;5.00;;;13.90;99.90;;;;;;5096948;28;20464;-68
2022/10/24 06:10:08;;;;;;;10.23;5.23;;;13.90;99.90;;;;;;5096358;28;20473;-68
2022/10/24 06:12:36;;;;;;;11.50;5.10;;;13.90;99.90;;;;;;5096380;28;20457;-66
2022/10/24 06:15:06;;;;;;;5.60;4.73;;;13.90;99.90;;;;;;5096439;28;20468;-68
2022/10/24 06:17:33;;;;;;;6.90;5.33;;;13.90;99.90;;;;;;5097073;28;20528;-67
2022/10/24 06:20:00;;;;;;;7.00;5.33;;;13.90;99.90;;;;;;5097299;28;20524;-68
2022/10/24 06:22:28;;;;;;;7.80;5.57;;;13.90;99.90;;;;;;5096381;28;20540;-68
2022/10/24 06:24:55;;;;;;;13.63;11.50;;;14.00;99.90;;;;;;5096589;28;20562;-68
2022/10/24 06:27:22;;;;;;;7.63;5.93;;;14.00;99.90;;;;;;5096147;28;20453;-68
2022/10/24 06:29:49;;;;;;;7.10;5.67;;;14.00;99.90;;;;;;5096220;28;20490;-68
2022/10/24 06:32:17;;;;;;;8.57;5.57;;;14.10;99.90;;;;;;5095904;28;20548;-68
2022/10/24 06:34:44;;;;;;;6.80;5.20;;;14.00;99.90;;;;;;5096569;28;20457;-68
2022/10/24 06:37:11;;;;;;;8.60;6.10;;;14.10;99.90;;;;;;5096266;28;20547;-69
2022/10/24 06:39:37;;;;;;;6.03;5.47;;;14.10;99.90;;;;;;5096402;28;20484;-66
2022/10/24 06:42:04;;;;;;;11.73;7.00;;;14.10;99.90;;;;;;5097014;28;20544;-67
2022/10/24 06:44:31;;;;;;;7.37;5.13;;;14.10;99.90;;;;;;5096677;28;20454;-67
2022/10/24 06:46:58;;;;;;;6.63;5.40;;;14.10;99.90;;;;;;5096428;28;20457;-68
2022/10/24 06:49:26;;;;;;;6.43;5.13;;;14.10;99.90;;;;;;5096149;28;20477;-66
2022/10/24 06:51:53;;;;;;;6.67;5.03;;;14.10;99.90;;;;;;5096545;28;20464;-67
2022/10/24 06:54:20;;;;;;;9.10;5.13;;;14.10;99.90;;;;;;5097201;28;20827;-68
2022/10/24 06:56:47;;;;;;;10.80;5.47;;;14.10;99.90;;;;;;5096908;28;20449;-68
2022/10/24 06:59:16;;;;;;;8.33;6.20;;;14.20;99.90;;;;;;5096556;28;20939;-67
2022/10/24 07:01:43;;;;;;;12.93;5.10;;;14.20;99.90;;;;;;5095498;28;20888;-67
2022/10/24 07:04:10;;;;;;;8.93;5.80;;;14.20;99.90;;;;;;5095435;28;20467;-67
2022/10/24 07:06:39;;;;;;;6.80;5.67;;;14.20;99.90;;;;;;5096107;28;20774;-69
2022/10/24 07:09:06;;;;;;;10.57;6.77;;;14.30;99.90;;;;;;5096109;28;20488;-68
2022/10/24 07:11:33;;;;;;;11.57;7.43;;;14.30;99.90;;;;;;5096448;28;20453;-67
2022/10/24 07:14:00;;;;;;;10.80;6.27;;;14.30;99.90;;;;;;5096231;28;20484;-67
2022/10/24 07:16:27;;;;;;;7.87;5.83;;;14.30;99.90;;;;;;5095711;28;20500;-68
2022/10/24 07:18:54;;;;;;;6.40;5.80;;;14.30;99.90;;;;;;5096192;28;20521;-68
2022/10/24 07:21:24;;;;;;;6.23;5.00;;;14.30;99.90;;;;;;5096429;28;20553;-68
2022/10/24 07:23:53;;;;;;;7.90;5.53;;;14.40;99.90;;;;;;5096232;28;20711;-68
2022/10/24 07:26:22;;;;;;;7.87;6.30;;;14.40;99.90;;;;;;5095848;28;20453;-68
2022/10/24 07:28:53;;;;;;;7.57;4.70;;;14.40;99.90;;;;;;5094678;28;20573;-68
2022/10/24 07:31:22;;;;;;;10.33;5.37;;;14.50;99.90;;;;;;5095479;28;20496;-68
2022/10/24 07:33:49;;;;;;;12.03;5.17;;;14.50;99.90;;;;;;5095154;28;20453;-68
2022/10/24 07:36:18;;;;;;;8.17;6.20;;;14.60;99.90;;;;;;5095791;28;20453;-68
2022/10/24 07:38:45;;;;;;;6.40;4.60;;;14.60;99.90;;;;;;5095536;28;20457;-68
2022/10/24 07:41:13;;;;;;;5.47;4.07;;;14.70;99.90;;;;;;5095599;28;20595;-68
2022/10/24 07:43:40;;;;;;;8.37;5.23;;;14.80;99.90;;;;;;5095897;28;20945;-68
2022/10/24 07:46:08;;;;;;;11.13;5.10;;;14.90;99.90;;;;;;5095734;28;20454;-68
2022/10/24 07:48:36;;;;;;;8.43;5.20;;;15.00;99.90;;;;;;5096981;28;20498;-68
2022/10/24 07:51:06;;;;;;;6.10;4.60;;;15.10;99.90;;;;;;5097498;28;20484;-69
2022/10/24 07:53:33;;;;;;;9.40;4.63;;;15.10;99.90;;;;;;5098010;28;20453;-68
2022/10/24 07:56:00;;;;;;;6.57;4.00;;;15.20;99.90;;;;;;5097594;28;20489;-68
2022/10/24 07:58:29;;;;;;;9.10;4.47;;;15.30;99.90;;;;;;5095049;28;20489;-69
2022/10/24 08:00:56;;;;;;;5.87;4.13;;;15.40;99.90;;;;;;5095756;28;20574;-70
2022/10/24 08:03:22;;;;;;;8.37;4.47;;;15.50;99.90;;;;;;5095891;28;20540;-67
2022/10/24 08:05:49;;;;;;;7.13;3.87;;;15.50;99.90;;;;;;5095132;28;20457;-67
2022/10/24 08:08:16;;;;;;;9.50;4.50;;;15.60;99.90;;;;;;5095858;28;20552;-68
2022/10/24 08:10:43;;;;;;;4.93;4.40;;;15.70;99.90;;;;;;5095080;28;20508;-67
2022/10/24 08:13:10;;;;;;;7.93;4.70;;;15.80;99.90;;;;;;5095815;28;20987;-67
2022/10/24 08:15:38;;;;;;;9.53;3.90;;;15.90;99.90;;;;;;5098924;28;20559;-68
2022/10/24 08:18:05;;;;;;;5.27;3.40;;;16.00;99.90;;;;;;5098202;28;20585;-68
2022/10/24 08:20:32;;;;;;;7.37;4.00;;;16.00;99.90;;;;;;5098373;28;20844;-68
2022/10/24 08:22:58;;;;;;;8.33;4.00;;;16.10;99.90;;;;;;5099327;28;20788;-68
2022/10/24 08:25:25;;;;;;;9.40;3.90;;;16.10;99.90;;;;;;5098046;28;20479;-68
2022/10/24 08:27:52;;;;;;;8.40;3.67;;;16.30;99.90;;;;;;5098462;28;20572;-68
2022/10/24 08:30:20;;;;;;;8.40;5.20;;;16.30;99.90;;;;;;5098239;28;20458;-71
2022/10/24 08:32:48;;;;;;;5.73;3.30;;;16.50;99.90;;;;;;5097338;28;20533;-69
2022/10/24 08:35:16;;;;;;;6.33;3.50;;;16.60;99.90;;;;;;5097418;28;20921;-67
2022/10/24 08:37:43;;;;;;;7.63;3.90;;;16.70;99.90;;;;;;5096976;28;20548;-69
2022/10/24 08:40:15;;;;;;;10.30;3.67;;;16.70;99.90;;;;;;5096790;28;20449;-68
2022/10/24 08:42:43;;;;;;;7.43;4.20;;;16.90;99.90;;;;;;5097140;28;20438;-68
2022/10/24 08:45:16;;;;;;;8.50;3.67;;;16.90;99.90;;;;;;5097366;28;20788;-68
2022/10/24 08:47:53;;;;;;;8.37;3.87;;;17.00;99.90;;;;;;5097209;28;20509;-68
2022/10/24 08:50:25;;;;;;;8.57;3.70;;;17.10;99.90;;;;;;5097423;28;20805;-68
2022/10/24 08:52:59;;;;;;;14.03;3.50;;;17.20;99.90;;;;;;5096328;28;20452;-69
2022/10/24 08:55:31;;;;;;;10.07;3.23;;;17.30;99.90;;;;;;5096799;28;20811;-69
2022/10/24 08:58:00;;;;;;;15.37;3.77;;;17.30;99.90;;;;;;5097018;28;20446;-69
2022/10/24 09:00:35;;;;;;;8.87;4.10;;;17.40;99.90;;;;;;5096312;28;20501;-68
2022/10/24 09:03:12;;;;;;;7.77;3.10;;;17.40;99.90;;;;;;5096422;28;20498;-69
2022/10/24 09:05:43;;;;;;;8.33;3.60;;;17.50;99.90;;;;;;5096471;28;20448;-68
2022/10/24 09:08:22;;;;;;;6.47;3.33;;;17.50;99.90;;;;;;5096466;28;20438;-67
2022/10/24 09:10:55;;;;;;;8.77;3.50;;;17.50;99.90;;;;;;5096957;28;20491;-69
2022/10/24 09:13:22;;;;;;;8.87;3.37;;;17.50;99.90;;;;;;5097171;28;20796;-69
2022/10/24 09:15:50;;;;;;;8.50;3.17;;;17.60;99.90;;;;;;5097073;28;20453;-69
2022/10/24 09:18:22;;;;;;;11.83;4.37;;;17.60;99.90;;;;;;5097067;28;20449;-69
2022/10/24 09:20:50;;;;;;;7.47;3.50;;;17.70;99.90;;;;;;5096828;28;20536;-68
2022/10/24 09:23:18;;;;;;;7.57;3.43;;;17.70;99.90;;;;;;5096921;28;20460;-68
2022/10/24 09:25:49;;;;;;;8.57;3.50;;;17.70;99.90;;;;;;5097051;28;20450;-68
2022/10/24 09:28:17;;;;;;;5.03;3.17;;;17.80;99.90;;;;;;5097083;28;20473;-69
2022/10/24 09:30:44;;;;;;;10.73;3.50;;;17.80;99.90;;;;;;5096899;28;20932;-67
2022/10/24 09:33:23;;;;;;;9.20;3.20;;;17.80;99.90;;;;;;5096395;28;20463;-69
2022/10/24 09:35:51;;;;;;;17.23;3.10;;;17.90;99.90;;;;;;5098046;28;20718;-69
2022/10/24 09:38:32;;;;;;;10.10;2.90;;;17.90;99.90;;;;;;5096309;28;20469;-69
2022/10/24 09:41:03;;;;;;;6.83;3.00;;;18.00;99.90;;;;;;5095924;28;20504;-68
2022/10/24 09:43:45;;;;;;;11.03;3.07;;;18.00;99.90;;;;;;5096215;28;20608;-70
2022/10/24 09:46:15;;;;;;;11.77;2.97;;;18.10;99.90;;;;;;5095657;28;20867;-68
2022/10/24 09:48:58;;;;;;;10.07;4.00;;;18.20;99.90;;;;;;5095581;28;20989;-69
2022/10/24 09:51:28;;;;;;;7.67;3.10;;;18.20;99.90;;;;;;5095535;28;20794;-69
2022/10/24 09:54:23;;;;;;;17.23;3.03;;;18.30;99.90;;;;;;5095909;28;20457;-70
2022/10/24 09:56:57;;;;;;;6.00;2.50;;;18.40;99.90;;;;;;5095840;28;20441;-69
2022/10/24 09:59:34;;;;;;;10.20;3.10;;;18.40;99.90;;;;;;5095062;28;20441;-68
2022/10/24 10:02:23;;;;;;;6.60;3.20;;;18.40;99.90;;;;;;5095490;28;20441;-69
2022/10/24 10:05:17;;;;;;;9.87;3.20;;;18.40;99.90;;;;;;5095119;28;20548;-70
2022/10/24 10:07:47;;;;;;;5.57;3.40;;;18.50;99.90;;;;;;5095604;28;20452;-68
2022/10/24 10:10:30;;;;;;;5.77;3.20;;;18.50;99.90;;;;;;5095143;28;20466;-68
2022/10/24 10:13:06;;;;;;;7.33;2.37;;;18.50;99.90;;;;;;5095298;28;20452;-68
2022/10/24 10:15:37;;;;;;;10.23;4.17;;;18.60;99.90;;;;;;5095120;28;20831;-69
2022/10/24 10:18:20;;;;;;;5.97;2.70;;;18.70;99.90;;;;;;5095526;28;20442;-68
2022/10/24 10:21:06;;;;;;;5.43;2.80;;;18.70;99.90;;;;;;5094932;28;20438;-69
2022/10/24 10:23:35;;;;;;;7.30;2.63;;;18.80;99.90;;;;;;5095245;28;20453;-69
2022/10/24 10:26:14;;;;;;;11.97;2.90;;;18.80;99.90;;;;;;5095190;28;20941;-69
2022/10/24 10:28:47;;;;;;;9.53;2.40;;;18.90;99.90;;;;;;5094655;28;20472;-68
2022/10/24 10:31:21;;;;;;;10.40;3.40;;;18.90;99.90;;;;;;5094434;28;20557;-68
2022/10/24 10:33:59;;;;;;;7.13;2.87;;;19.00;99.90;;;;;;5095117;28;20446;-69
2022/10/24 10:36:34;;;;;;;9.03;2.60;;;19.00;99.90;;;;;;5094119;28;20532;-69
2022/10/24 10:39:16;;;;;;;8.90;3.17;;;18.90;99.90;;;;;;5094835;28;20441;-69
2022/10/24 10:41:49;;;;;;;6.00;2.77;;;18.90;99.90;;;;;;5094668;28;20506;-68
2022/10/24 10:44:42;;;;;;;8.60;2.70;;;18.90;99.90;;;;;;5094473;28;20451;-68
2022/10/24 10:47:16;;;;;;;6.73;2.97;;;18.90;99.90;;;;;;5094680;28;20465;-69
2022/10/24 10:49:45;;;;;;;9.77;2.50;;;18.90;99.90;;;;;;5095382;28;20452;-69
2022/10/24 10:52:18;;;;;;;8.90;3.10;;;18.90;99.90;;;;;;5094365;28;20460;-68
2022/10/24 10:55:05;;;;;;;9.50;3.70;;;19.00;99.90;;;;;;5094531;28;20462;-68
2022/10/24 10:57:39;;;;;;;9.53;2.90;;;18.90;99.90;;;;;;5095214;28;20451;-68
2022/10/24 11:00:11;;;;;;;7.77;2.80;;;18.90;99.90;;;;;;5094687;28;20437;-69
2022/10/24 11:03:15;;;;;;;5.93;2.80;;;19.00;99.90;;;;;;5094625;28;20813;-69
2022/10/24 11:06:03;;;;;;;12.07;3.10;;;18.90;99.90;;;;;;5047189;28;20453;-68
2022/10/24 11:09:03;;;;;;;9.43;3.30;;;19.00;99.90;;;;;;5095449;28;20538;-68
2022/10/24 11:11:32;;;;;;;8.93;3.03;;;19.00;99.90;;;;;;5095020;28;20487;-69
2022/10/24 11:14:07;;;;;;;9.13;2.67;;;19.00;99.90;;;;;;5094524;28;20548;-68
2022/10/24 11:16:38;;;;;;;5.47;2.80;;;19.00;99.90;;;;;;5094698;28;20463;-68
2022/10/24 11:19:10;;;;;;;9.90;2.60;;;19.00;99.90;;;;;;5095185;28;20532;-69
2022/10/24 11:21:39;;;;;;;7.90;2.83;;;19.00;99.90;;;;;;5094942;28;20438;-69
2022/10/24 11:24:12;;;;;;;13.10;2.83;;;19.10;99.90;;;;;;5094287;28;20954;-68
2022/10/24 11:26:42;;;;;;;9.53;2.43;;;19.10;99.90;;;;;;5094507;28;20442;-68
2022/10/24 11:29:16;;;;;;;8.90;2.83;;;19.10;99.90;;;;;;5094158;28;20819;-68
2022/10/24 11:31:47;;;;;;;7.30;3.27;;;19.10;99.90;;;;;;5094224;28;20473;-68
2022/10/24 11:34:20;;;;;;;10.10;2.90;;;19.10;99.90;;;;;;5094563;28;20449;-69
2022/10/24 11:36:51;;;;;;;6.97;2.70;;;19.10;99.90;;;;;;5094122;28;20925;-69
2022/10/24 11:39:24;;;;;;;7.50;2.50;;;19.10;99.90;;;;;;5094271;28;20437;-68
2022/10/24 11:41:59;;;;;;;4.30;2.73;;;19.20;99.90;;;;;;5093968;28;20977;-68
2022/10/24 11:44:34;;;;;;;10.53;2.70;;;19.20;99.90;;;;;;5094186;28;20444;-68
2022/10/24 11:47:11;;;;;;;13.60;2.63;;;19.10;99.90;;;;;;5094601;28;20904;-68
2022/10/24 11:49:44;;;;;;;9.17;2.60;;;19.10;99.90;;;;;;5098419;28;20452;-68
2022/10/24 11:52:18;;;;;;;5.30;2.47;;;19.10;99.90;;;;;;5098217;28;20913;-69
2022/10/24 11:54:51;;;;;;;6.63;2.27;;;19.10;99.90;;;;;;5097880;28;20452;-67
2022/10/24 11:57:21;;;;;;;7.70;2.67;;;19.10;99.90;;;;;;5098088;28;20438;-68
2022/10/24 11:59:52;;;;;;;4.80;2.00;;;19.10;99.90;;;;;;5097943;28;20784;-68
2022/10/24 12:02:42;;;;;;;8.70;2.77;;;19.10;99.90;;;;;;5097951;28;20466;-68
2022/10/24 12:05:29;;;;;;;7.03;2.43;;;19.20;99.90;;;;;;5097970;28;20442;-68
2022/10/24 12:08:21;;;;;;;9.30;2.50;;;19.20;99.90;;;;;;5097734;28;20445;-69
2022/10/24 12:11:25;;;;;;;6.47;2.63;;;19.20;99.90;;;;;;5097799;28;20465;-70
2022/10/24 12:14:21;;;;;;;9.57;2.93;;;19.30;99.90;;;;;;5073233;28;20833;-68
2022/10/24 12:17:04;;;;;;;6.83;1.80;;;19.40;99.90;;;;;;5097738;28;20438;-69
2022/10/24 12:19:32;;;;;;;5.27;2.10;;;19.40;99.90;;;;;;5097780;28;20769;-69
2022/10/24 12:22:03;;;;;;;5.40;2.20;;;19.50;99.90;;;;;;5097526;28;20541;-69
2022/10/24 12:24:34;;;;;;;6.60;2.30;;;19.60;99.90;;;;;;5097474;28;20483;-71
2022/10/24 12:27:05;;;;;;;8.30;2.07;;;19.70;99.90;;;;;;5097781;28;20823;-69
2022/10/24 12:29:34;;;;;;;5.07;2.20;;;19.70;99.90;;;;;;5097442;28;20483;-68
2022/10/24 12:32:30;;;;;;;13.33;2.10;;;19.80;99.90;;;;;;5097645;28;20573;-70
2022/10/24 12:34:59;;;;;;;5.87;2.43;;;19.70;99.90;;;;;;5097434;28;20627;-69
2022/10/24 12:37:34;;;;;;;7.70;2.40;;;19.70;99.90;;;;;;5097738;28;20792;-69
2022/10/24 12:40:40;;;;;;;8.10;2.47;;;19.80;99.90;;;;;;5097142;28;20463;-68
2022/10/24 12:43:29;;;;;;;7.43;2.80;;;19.80;99.90;;;;;;5096828;28;20453;-71
2022/10/24 12:45:59;;;;;;;5.90;2.23;;;19.80;99.90;;;;;;5098637;28;20441;-72
2022/10/24 12:48:34;;;;;;;10.70;2.50;;;19.70;99.90;;;;;;5096870;28;20461;-71
2022/10/24 12:51:27;;;;;;;3.77;1.83;;;19.70;99.90;;;;;;5097121;28;20472;-71
2022/10/24 12:54:05;;;;;;;9.00;2.47;;;19.80;99.90;;;;;;5098065;28;20442;-72
2022/10/24 12:56:34;;;;;;;7.00;2.00;;;19.70;99.90;;;;;;5097806;28;20532;-71
2022/10/24 12:59:14;;;;;;;8.23;3.47;;;19.70;99.90;;;;;;5095613;28;20906;-71
2022/10/24 13:01:42;;;;;;;6.23;2.27;;;19.90;99.90;;;;;;5096549;28;20528;-71